Time;durP1;ratioP1;P1;durP2;ratioP2;P2;SDS_P1;SDS_P2;PMS_P1;PMS_P2;Temp;Humidity;BMP_temperature;BMP_pressure;BME280_temperature;BME280_humidity;BME280_pressure;Samples;Min_cycle;Max_cycle;Signal;HPM_P1;HPM_P2
2023/05/12 00:00:46;;;;;;;0.63;0.63;;;14.00;99.90;;;;;;4914540;29;20216;-65
2023/05/12 00:03:14;;;;;;;0.60;0.50;;;14.00;99.90;;;;;;4914239;29;20295;-64
2023/05/12 00:05:43;;;;;;;0.68;0.60;;;13.90;99.90;;;;;;4909407;29;20232;-64
2023/05/12 00:08:11;;;;;;;1.30;0.73;;;13.90;99.90;;;;;;4909446;29;20671;-65
2023/05/12 00:10:39;;;;;;;0.60;0.57;;;13.90;99.90;;;;;;4913558;29;20668;-64
2023/05/12 00:13:08;;;;;;;0.60;0.50;;;13.90;99.90;;;;;;4912783;29;20209;-66
2023/05/12 00:15:37;;;;;;;1.10;1.00;;;14.00;99.90;;;;;;4914268;29;20836;-64
2023/05/12 00:18:05;;;;;;;1.25;1.15;;;14.10;99.90;;;;;;4913574;29;20205;-64
2023/05/12 00:20:33;;;;;;;1.08;0.98;;;14.10;99.90;;;;;;4914353;29;20240;-64
2023/05/12 00:23:02;;;;;;;1.08;0.90;;;14.10;99.90;;;;;;4906550;29;20236;-64
2023/05/12 00:25:30;;;;;;;0.82;0.75;;;14.20;99.90;;;;;;4914574;29;20274;-64
2023/05/12 00:27:58;;;;;;;1.88;0.40;;;14.20;99.90;;;;;;4907752;29;20208;-64
2023/05/12 00:30:26;;;;;;;0.60;0.50;;;14.10;99.90;;;;;;4918341;29;20303;-63
2023/05/12 00:32:54;;;;;;;1.05;0.70;;;14.20;99.90;;;;;;4917865;29;20216;-64
2023/05/12 00:35:22;;;;;;;0.80;0.60;;;14.10;99.90;;;;;;4918185;29;20231;-63
2023/05/12 00:37:50;;;;;;;0.82;0.82;;;14.20;99.90;;;;;;4918097;29;20299;-64
2023/05/12 00:40:19;;;;;;;0.88;0.82;;;14.10;99.90;;;;;;4918977;29;20287;-63
2023/05/12 00:42:48;;;;;;;1.00;0.90;;;14.10;99.90;;;;;;4918083;29;20216;-64
2023/05/12 00:45:16;;;;;;;1.00;0.90;;;14.10;99.90;;;;;;4918153;29;20247;-64
2023/05/12 00:47:46;;;;;;;0.80;0.50;;;14.20;99.90;;;;;;4917748;29;20292;-64
2023/05/12 00:50:15;;;;;;;1.13;0.82;;;14.10;99.90;;;;;;4918077;29;20231;-65
2023/05/12 00:52:43;;;;;;;1.20;1.10;;;14.10;99.90;;;;;;4916992;29;20209;-64
2023/05/12 00:55:11;;;;;;;0.52;0.40;;;14.10;99.90;;;;;;4911491;29;20310;-64
2023/05/12 00:57:41;;;;;;;1.67;1.58;;;14.10;99.90;;;;;;4917519;29;20244;-64
2023/05/12 01:00:09;;;;;;;0.73;0.73;;;14.00;99.90;;;;;;4917957;29;20628;-63
2023/05/12 01:02:37;;;;;;;0.70;0.65;;;14.10;99.90;;;;;;4917218;29;20223;-64
2023/05/12 01:05:07;;;;;;;0.70;0.63;;;14.10;99.90;;;;;;4917719;29;20235;-64
2023/05/12 01:07:36;;;;;;;0.80;0.60;;;14.10;99.90;;;;;;4917970;29;20299;-64
2023/05/12 01:10:05;;;;;;;0.68;0.65;;;14.10;99.90;;;;;;4910327;29;20307;-64
2023/05/12 01:12:33;;;;;;;0.90;0.80;;;14.10;99.90;;;;;;4917347;29;20208;-64
2023/05/12 01:15:02;;;;;;;1.33;0.60;;;14.10;99.90;;;;;;4914312;29;20224;-64
2023/05/12 01:17:32;;;;;;;0.60;0.55;;;14.10;99.90;;;;;;4917296;29;20296;-64
2023/05/12 01:20:03;;;;;;;1.27;1.17;;;14.10;99.90;;;;;;4917433;29;20563;-64
2023/05/12 01:22:32;;;;;;;1.05;0.75;;;14.10;99.90;;;;;;4917404;29;20227;-64
2023/05/12 01:25:04;;;;;;;1.25;1.05;;;14.20;99.90;;;;;;4913521;29;20225;-64
2023/05/12 01:27:34;;;;;;;1.00;0.90;;;14.10;99.90;;;;;;4912619;29;20334;-64
2023/05/12 01:30:04;;;;;;;0.60;0.40;;;14.10;99.90;;;;;;4911086;29;20303;-64
2023/05/12 01:32:32;;;;;;;0.60;0.40;;;14.10;99.90;;;;;;4917027;29;20205;-64
2023/05/12 01:35:00;;;;;;;1.38;1.10;;;14.10;99.90;;;;;;4916239;29;20232;-64
2023/05/12 01:37:28;;;;;;;0.60;0.60;;;14.00;99.90;;;;;;4917549;29;20661;-64
2023/05/12 01:39:56;;;;;;;1.63;1.52;;;13.90;99.90;;;;;;4916023;29;20288;-64
2023/05/12 01:42:24;;;;;;;1.50;0.93;;;13.80;99.90;;;;;;4917105;29;20316;-64
2023/05/12 01:44:53;;;;;;;1.45;0.95;;;13.60;99.90;;;;;;4916370;29;20300;-64
2023/05/12 01:47:23;;;;;;;1.23;1.13;;;13.40;99.90;;;;;;4916979;29;20578;-64
2023/05/12 01:49:53;;;;;;;1.35;0.70;;;13.30;99.90;;;;;;4916335;29;20224;-64
2023/05/12 01:52:21;;;;;;;1.40;1.27;;;13.20;99.90;;;;;;4917214;29;20628;-64
2023/05/12 01:54:50;;;;;;;0.88;0.82;;;13.10;99.90;;;;;;4916571;29;20246;-65
2023/05/12 01:57:18;;;;;;;1.52;1.23;;;13.00;99.90;;;;;;4916945;29;20209;-64
2023/05/12 01:59:46;;;;;;;0.82;0.80;;;13.10;99.90;;;;;;4916755;29;20209;-65
2023/05/12 02:02:15;;;;;;;0.85;0.73;;;13.10;99.90;;;;;;4916962;29;20213;-64
2023/05/12 02:04:43;;;;;;;1.23;1.00;;;13.00;99.90;;;;;;4915778;29;20236;-65
2023/05/12 02:07:11;;;;;;;1.42;0.90;;;12.90;99.90;;;;;;4916789;29;20649;-65
2023/05/12 02:09:38;;;;;;;1.00;0.80;;;13.00;99.90;;;;;;4916575;29;20233;-66
2023/05/12 02:12:07;;;;;;;2.00;1.70;;;13.10;99.90;;;;;;4916681;29;20211;-65
2023/05/12 02:14:35;;;;;;;2.25;1.90;;;13.20;99.90;;;;;;4916231;29;20260;-65
2023/05/12 02:17:03;;;;;;;1.83;1.67;;;13.10;99.90;;;;;;4916414;29;20209;-65
2023/05/12 02:19:32;;;;;;;1.42;1.33;;;13.20;99.90;;;;;;4916232;29;20260;-64
2023/05/12 02:22:00;;;;;;;0.98;0.60;;;13.30;99.90;;;;;;4914812;29;20300;-64
2023/05/12 02:24:28;;;;;;;1.60;1.48;;;13.20;99.90;;;;;;4916162;29;20232;-64
2023/05/12 02:26:56;;;;;;;1.25;1.15;;;13.20;99.90;;;;;;4916299;29;20253;-64
2023/05/12 02:29:24;;;;;;;0.77;0.70;;;13.20;99.90;;;;;;4916251;29;20308;-64
2023/05/12 02:31:52;;;;;;;1.08;0.98;;;13.30;99.90;;;;;;4916086;29;20218;-64
2023/05/12 02:34:20;;;;;;;1.15;1.05;;;13.30;99.90;;;;;;4915589;29;20228;-64
2023/05/12 02:36:49;;;;;;;0.70;0.52;;;13.30;99.90;;;;;;4916118;29;20216;-64
2023/05/12 02:39:17;;;;;;;0.90;0.70;;;13.20;99.90;;;;;;4916403;29;20220;-64
2023/05/12 02:41:45;;;;;;;1.70;1.20;;;13.20;99.90;;;;;;4915697;29;20232;-65
2023/05/12 02:44:15;;;;;;;1.95;1.27;;;13.30;99.90;;;;;;4915595;29;20333;-64
2023/05/12 02:46:43;;;;;;;0.60;0.60;;;13.30;99.90;;;;;;4914527;29;20205;-64
2023/05/12 02:49:11;;;;;;;1.45;1.20;;;13.30;99.90;;;;;;4913075;29;20248;-64
2023/05/12 02:51:39;;;;;;;2.35;2.15;;;13.30;99.90;;;;;;4912190;29;20239;-65
2023/05/12 02:54:08;;;;;;;0.90;0.70;;;13.30;99.90;;;;;;4912134;29;20239;-65
2023/05/12 02:56:36;;;;;;;0.93;0.85;;;13.30;99.90;;;;;;4912081;29;20639;-64
2023/05/12 02:59:03;;;;;;;1.40;0.63;;;13.30;99.90;;;;;;4914545;29;20283;-65
2023/05/12 03:01:32;;;;;;;1.50;1.40;;;13.30;99.90;;;;;;4910757;29;20883;-65
2023/05/12 03:03:59;;;;;;;0.95;0.85;;;13.30;99.90;;;;;;4911236;29;20287;-64
2023/05/12 03:06:27;;;;;;;1.65;0.60;;;13.20;99.90;;;;;;4913266;29;20287;-64
2023/05/12 03:08:55;;;;;;;1.33;1.23;;;13.20;99.90;;;;;;4912797;29;20299;-65
2023/05/12 03:11:25;;;;;;;1.58;1.20;;;13.30;99.90;;;;;;4912189;29;20964;-64
2023/05/12 03:13:53;;;;;;;1.90;1.15;;;13.30;99.90;;;;;;4910283;29;20331;-64
2023/05/12 03:16:20;;;;;;;1.25;1.00;;;13.40;99.90;;;;;;4910346;29;21207;-64
2023/05/12 03:18:48;;;;;;;1.15;0.95;;;13.40;99.90;;;;;;4911054;29;20253;-64
2023/05/12 03:21:17;;;;;;;1.30;1.20;;;13.40;99.90;;;;;;4903039;29;20205;-64
2023/05/12 03:23:44;;;;;;;1.88;1.77;;;13.30;99.90;;;;;;4908277;29;20659;-64
2023/05/12 03:26:12;;;;;;;1.17;1.10;;;13.20;99.90;;;;;;4909444;29;20209;-65
2023/05/12 03:28:41;;;;;;;1.08;0.77;;;13.20;99.90;;;;;;4908083;29;20798;-64
2023/05/12 03:31:09;;;;;;;1.45;1.35;;;13.30;99.90;;;;;;4904087;29;20235;-65
2023/05/12 03:33:37;;;;;;;0.85;0.85;;;13.20;99.90;;;;;;4906616;29;20245;-64
2023/05/12 03:36:06;;;;;;;1.45;1.35;;;13.20;99.90;;;;;;4899164;29;20209;-66
2023/05/12 03:38:34;;;;;;;1.10;1.00;;;13.10;99.90;;;;;;4905206;29;20771;-64
2023/05/12 03:41:05;;;;;;;0.80;0.80;;;13.00;99.90;;;;;;4906165;29;20272;-64
2023/05/12 03:43:34;;;;;;;0.95;0.85;;;12.80;99.90;;;;;;4914724;29;20224;-65
2023/05/12 03:46:03;;;;;;;1.05;1.05;;;12.70;99.90;;;;;;4914430;29;20767;-64
2023/05/12 03:48:31;;;;;;;0.70;0.55;;;12.60;99.90;;;;;;4914900;29;20291;-64
2023/05/12 03:50:59;;;;;;;0.75;0.65;;;12.40;99.90;;;;;;4914301;29;20224;-64
2023/05/12 03:53:27;;;;;;;0.60;0.50;;;12.40;99.90;;;;;;4915764;29;20223;-64
2023/05/12 03:55:55;;;;;;;0.88;0.85;;;12.40;99.90;;;;;;4911998;29;20244;-64
2023/05/12 03:58:23;;;;;;;0.70;0.60;;;12.50;99.90;;;;;;4914867;29;20213;-64
2023/05/12 04:00:51;;;;;;;0.90;0.80;;;12.30;99.90;;;;;;4914476;29;20691;-64
2023/05/12 04:03:20;;;;;;;1.50;1.05;;;12.40;99.90;;;;;;4913784;29;20244;-64
2023/05/12 04:05:48;;;;;;;0.60;0.50;;;12.40;99.90;;;;;;4914298;29;20762;-65
2023/05/12 04:08:16;;;;;;;0.80;0.80;;;12.40;99.90;;;;;;4914737;29;20216;-64
2023/05/12 04:10:44;;;;;;;0.60;0.50;;;12.30;99.90;;;;;;4913869;29;20307;-63
2023/05/12 04:13:12;;;;;;;0.70;0.50;;;12.30;99.90;;;;;;4914677;29;20263;-64
2023/05/12 04:15:40;;;;;;;1.08;0.85;;;12.20;99.90;;;;;;4921614;29;20268;-64
2023/05/12 04:18:08;;;;;;;1.08;0.60;;;12.20;99.90;;;;;;4907996;29;20217;-64
2023/05/12 04:20:38;;;;;;;0.70;0.60;;;12.10;99.90;;;;;;4907774;29;20288;-65
2023/05/12 04:23:06;;;;;;;0.60;0.47;;;12.20;99.90;;;;;;4909119;29;20209;-65
2023/05/12 04:25:34;;;;;;;0.60;0.55;;;12.10;99.90;;;;;;4906631;29;20316;-65
2023/05/12 04:28:01;;;;;;;0.60;0.50;;;12.20;99.90;;;;;;4907870;29;20755;-66
2023/05/12 04:30:29;;;;;;;0.60;0.55;;;12.30;99.90;;;;;;4906968;29;20237;-64
2023/05/12 04:32:57;;;;;;;1.63;1.15;;;12.30;99.90;;;;;;4903370;29;20212;-65
2023/05/12 04:35:25;;;;;;;0.60;0.60;;;12.30;99.90;;;;;;4900411;29;20233;-64
2023/05/12 04:37:54;;;;;;;0.85;0.80;;;12.30;99.90;;;;;;4912242;29;20206;-64
2023/05/12 04:40:22;;;;;;;0.80;0.75;;;12.40;99.90;;;;;;4902483;29;20315;-65
2023/05/12 04:42:50;;;;;;;0.60;0.50;;;12.40;99.90;;;;;;4900010;29;20216;-64
2023/05/12 04:45:18;;;;;;;1.60;1.10;;;12.50;99.90;;;;;;4912261;29;20300;-64
2023/05/12 04:47:47;;;;;;;1.25;1.15;;;12.50;99.90;;;;;;4913017;29;20227;-63
2023/05/12 04:50:15;;;;;;;1.13;0.85;;;12.50;99.90;;;;;;4907729;29;20217;-64
2023/05/12 04:52:43;;;;;;;1.40;1.02;;;12.50;99.90;;;;;;4906160;29;20320;-64
2023/05/12 04:55:12;;;;;;;0.90;0.90;;;12.40;99.90;;;;;;4911526;29;20234;-64
2023/05/12 04:57:40;;;;;;;0.70;0.60;;;12.40;99.90;;;;;;4915342;29;20630;-64
2023/05/12 05:00:09;;;;;;;0.80;0.77;;;12.50;99.90;;;;;;4908297;29;23740;-64
2023/05/12 05:02:37;;;;;;;0.60;0.55;;;12.50;99.90;;;;;;4908748;29;20209;-64
2023/05/12 05:05:06;;;;;;;1.73;1.02;;;12.50;99.90;;;;;;4907639;29;20228;-64
2023/05/12 05:07:34;;;;;;;1.02;1.02;;;12.50;99.90;;;;;;4906061;29;20299;-65
2023/05/12 05:10:02;;;;;;;1.05;0.75;;;12.50;99.90;;;;;;4909500;29;20215;-64
2023/05/12 05:12:31;;;;;;;1.00;0.95;;;12.50;99.90;;;;;;4909561;29;20239;-64
2023/05/12 05:14:59;;;;;;;0.73;0.63;;;12.40;99.90;;;;;;4909610;29;20267;-65
2023/05/12 05:17:28;;;;;;;1.00;0.75;;;12.50;99.90;;;;;;4914890;29;20219;-64
2023/05/12 05:19:56;;;;;;;0.50;0.40;;;12.40;99.90;;;;;;4913467;29;20571;-64
2023/05/12 05:22:27;;;;;;;1.55;0.70;;;12.40;99.90;;;;;;4912793;29;20213;-64
2023/05/12 05:24:55;;;;;;;0.60;0.60;;;12.40;99.90;;;;;;4918174;29;20315;-65
2023/05/12 05:27:22;;;;;;;0.98;0.88;;;12.30;99.90;;;;;;4912520;29;20975;-63
2023/05/12 05:29:53;;;;;;;0.60;0.60;;;12.40;99.90;;;;;;4918716;29;20218;-66
2023/05/12 05:32:21;;;;;;;1.20;1.10;;;12.30;99.90;;;;;;4915444;29;20224;-64
2023/05/12 05:34:49;;;;;;;1.13;0.98;;;12.30;99.90;;;;;;4913486;29;20726;-64
2023/05/12 05:37:17;;;;;;;1.98;1.42;;;12.30;99.90;;;;;;4913076;29;20780;-64
2023/05/12 05:39:45;;;;;;;1.67;0.75;;;12.30;99.90;;;;;;4913488;29;20968;-65
2023/05/12 05:42:14;;;;;;;1.23;0.90;;;12.30;99.90;;;;;;4913192;29;20649;-64
2023/05/12 05:44:42;;;;;;;0.73;0.60;;;12.30;99.90;;;;;;4909615;29;20247;-65
2023/05/12 05:47:11;;;;;;;1.45;0.73;;;12.30;99.90;;;;;;4911165;29;20304;-64
2023/05/12 05:49:41;;;;;;;1.10;0.93;;;12.30;99.90;;;;;;4915356;29;20228;-64
2023/05/12 05:52:08;;;;;;;0.90;0.80;;;12.30;99.90;;;;;;4911494;29;20224;-65
2023/05/12 05:54:36;;;;;;;1.02;0.98;;;12.30;99.90;;;;;;4910134;29;20301;-63
2023/05/12 05:57:04;;;;;;;1.00;0.90;;;12.20;99.90;;;;;;4909910;29;20684;-67
2023/05/12 05:59:32;;;;;;;0.60;0.60;;;12.30;99.90;;;;;;4916276;29;20296;-64
2023/05/12 06:02:00;;;;;;;2.00;1.80;;;12.20;99.90;;;;;;4915083;29;20296;-63
2023/05/12 06:04:29;;;;;;;0.60;0.57;;;12.20;99.90;;;;;;4914110;29;20232;-64
2023/05/12 06:06:57;;;;;;;0.80;0.70;;;12.20;99.90;;;;;;4915683;29;20222;-64
2023/05/12 06:09:25;;;;;;;1.02;0.93;;;12.20;99.90;;;;;;4915982;29;20292;-64
2023/05/12 06:11:53;;;;;;;0.85;0.80;;;12.30;99.90;;;;;;4916325;29;20315;-63
2023/05/12 06:14:21;;;;;;;0.60;0.50;;;12.30;99.90;;;;;;4919890;29;20785;-63
2023/05/12 06:16:49;;;;;;;0.70;0.65;;;12.30;99.90;;;;;;4935768;29;20291;-63
2023/05/12 06:19:17;;;;;;;1.55;1.45;;;12.30;99.90;;;;;;4916642;29;20211;-64
2023/05/12 06:21:46;;;;;;;1.20;1.10;;;12.30;99.90;;;;;;4916438;29;20287;-63
2023/05/12 06:24:14;;;;;;;1.10;0.88;;;12.30;99.90;;;;;;4915663;29;20726;-63
2023/05/12 06:26:42;;;;;;;1.55;1.45;;;12.30;99.90;;;;;;4916030;29;20213;-63
2023/05/12 06:29:09;;;;;;;0.68;0.60;;;12.40;99.90;;;;;;4916227;29;20726;-63
2023/05/12 06:31:37;;;;;;;0.80;0.80;;;12.40;99.90;;;;;;4916018;29;20316;-63
2023/05/12 06:34:05;;;;;;;1.20;1.10;;;12.40;99.90;;;;;;4916322;29;20255;-63
2023/05/12 06:36:35;;;;;;;0.80;0.80;;;12.50;99.90;;;;;;4916440;29;20750;-63
2023/05/12 06:39:05;;;;;;;0.75;0.73;;;12.50;99.90;;;;;;4916058;29;20219;-64
2023/05/12 06:41:33;;;;;;;0.80;0.80;;;12.50;99.90;;;;;;4908271;29;20470;-65
2023/05/12 06:44:02;;;;;;;1.20;1.10;;;12.60;99.90;;;;;;4916578;29;20251;-63
2023/05/12 06:46:31;;;;;;;0.90;0.80;;;12.60;99.90;;;;;;4966989;23;20590;-70
2023/05/12 06:48:59;;;;;;;1.52;1.38;;;12.60;99.90;;;;;;4934693;29;20694;-70
2023/05/12 06:51:27;;;;;;;0.75;0.75;;;12.60;99.90;;;;;;4934655;29;20232;-70
2023/05/12 06:53:55;;;;;;;1.08;0.63;;;12.70;99.90;;;;;;4934805;29;20255;-70
2023/05/12 06:56:24;;;;;;;0.82;0.82;;;12.70;99.90;;;;;;4923242;29;20236;-71
2023/05/12 06:58:53;;;;;;;1.00;0.90;;;12.60;99.90;;;;;;4915940;29;20264;-70
2023/05/12 07:01:21;;;;;;;0.80;0.80;;;12.70;99.90;;;;;;4907827;29;20302;-70
2023/05/12 07:03:49;;;;;;;1.35;1.02;;;12.70;99.90;;;;;;4915719;29;20217;-71
2023/05/12 07:06:17;;;;;;;0.85;0.85;;;12.70;99.90;;;;;;4915562;29;20225;-70
2023/05/12 07:08:44;;;;;;;0.82;0.80;;;12.70;99.90;;;;;;4915733;29;20219;-70
2023/05/12 07:11:18;;;;;;;0.90;0.90;;;12.80;99.90;;;;;;4898623;29;20547;-71
2023/05/12 07:13:48;;;;;;;0.80;0.70;;;12.90;99.90;;;;;;4915200;29;20260;-70
2023/05/12 07:16:17;;;;;;;1.25;1.15;;;13.00;99.90;;;;;;4933859;29;20322;-71
2023/05/12 07:18:46;;;;;;;0.60;0.45;;;13.00;99.90;;;;;;4928067;29;20771;-71
2023/05/12 07:21:14;;;;;;;0.93;0.77;;;13.10;99.90;;;;;;4915270;29;20268;-71
2023/05/12 07:23:42;;;;;;;0.95;0.60;;;13.10;99.90;;;;;;4915579;29;20296;-70
2023/05/12 07:26:10;;;;;;;0.60;0.60;;;13.20;99.90;;;;;;4915248;29;20228;-70
2023/05/12 07:28:38;;;;;;;1.20;1.08;;;13.20;99.90;;;;;;4914762;29;20684;-70
2023/05/12 07:31:08;;;;;;;0.98;0.88;;;13.30;99.90;;;;;;4915114;29;20780;-70
2023/05/12 07:33:36;;;;;;;1.00;0.90;;;13.30;99.90;;;;;;4915376;29;20693;-70
2023/05/12 07:36:04;;;;;;;0.90;0.70;;;13.20;99.90;;;;;;4915170;29;20319;-70
2023/05/12 07:38:32;;;;;;;0.65;0.65;;;13.20;99.90;;;;;;4914362;29;20554;-70
2023/05/12 07:41:00;;;;;;;0.95;0.95;;;13.10;99.90;;;;;;4914980;29;20220;-70
2023/05/12 07:43:28;;;;;;;0.98;0.65;;;13.10;99.90;;;;;;4914896;29;20247;-70
2023/05/12 07:45:58;;;;;;;0.70;0.68;;;13.10;99.90;;;;;;4921491;29;20731;-70
2023/05/12 07:48:27;;;;;;;1.02;0.65;;;13.10;99.90;;;;;;4907506;29;20201;-70
2023/05/12 07:50:55;;;;;;;2.05;1.20;;;13.00;99.90;;;;;;4915059;29;20215;-71
2023/05/12 07:53:23;;;;;;;0.82;0.47;;;13.10;99.90;;;;;;4922553;29;20310;-70
2023/05/12 07:55:50;;;;;;;1.02;0.95;;;13.20;99.90;;;;;;4914974;29;20243;-70
2023/05/12 07:58:18;;;;;;;0.70;0.55;;;13.20;99.90;;;;;;4914312;29;20272;-70
2023/05/12 08:00:46;;;;;;;0.95;0.95;;;13.20;99.90;;;;;;4914633;29;20299;-70
2023/05/12 08:03:15;;;;;;;1.05;0.65;;;13.30;99.90;;;;;;4914010;29;20228;-70
2023/05/12 08:05:44;;;;;;;0.60;0.50;;;13.40;99.90;;;;;;4914808;29;20777;-70
2023/05/12 08:08:15;;;;;;;0.85;0.85;;;13.40;99.90;;;;;;4914618;29;20292;-71
2023/05/12 08:10:43;;;;;;;0.60;0.50;;;13.50;99.90;;;;;;4914834;29;20267;-71
2023/05/12 08:13:11;;;;;;;1.40;0.60;;;13.50;99.90;;;;;;4914505;29;20803;-70
2023/05/12 08:15:39;;;;;;;0.60;0.60;;;13.50;99.90;;;;;;4919844;29;20231;-70
2023/05/12 08:18:07;;;;;;;1.10;1.00;;;13.40;99.90;;;;;;4924236;29;20208;-70
2023/05/12 08:20:35;;;;;;;1.45;0.90;;;13.40;99.90;;;;;;4914477;29;20582;-70
2023/05/12 08:23:05;;;;;;;1.10;1.00;;;13.40;99.90;;;;;;4914567;29;20292;-70
2023/05/12 08:25:33;;;;;;;0.70;0.70;;;13.40;99.90;;;;;;4914683;29;20244;-70
2023/05/12 08:28:01;;;;;;;1.10;0.93;;;13.50;99.90;;;;;;4914392;29;20255;-69
2023/05/12 08:30:29;;;;;;;0.60;0.60;;;13.50;99.90;;;;;;4914556;29;20209;-71
2023/05/12 08:32:57;;;;;;;0.70;0.70;;;13.50;99.90;;;;;;4914548;29;20538;-70
2023/05/12 08:35:27;;;;;;;1.00;0.70;;;13.60;99.90;;;;;;4914253;29;20259;-71
2023/05/12 08:37:55;;;;;;;1.00;0.70;;;13.60;99.90;;;;;;4914327;29;20292;-71
2023/05/12 08:40:25;;;;;;;0.90;0.90;;;13.80;99.90;;;;;;4914356;29;20239;-71
2023/05/12 08:43:06;;;;;;;0.60;0.40;;;13.90;99.90;;;;;;4914587;29;20212;-70
2023/05/12 08:45:37;;;;;;;0.77;0.70;;;14.10;99.90;;;;;;4925968;29;20274;-70
2023/05/12 08:48:08;;;;;;;0.80;0.75;;;14.20;99.90;;;;;;4921635;29;20208;-70
2023/05/12 08:50:38;;;;;;;1.05;0.90;;;14.30;99.90;;;;;;4918397;29;20264;-70
2023/05/12 08:53:10;;;;;;;1.00;0.90;;;14.40;99.90;;;;;;4917983;29;20687;-70
2023/05/12 08:55:42;;;;;;;0.50;0.40;;;14.40;99.90;;;;;;4918100;29;20268;-70
2023/05/12 08:58:25;;;;;;;0.60;0.40;;;14.50;99.90;;;;;;4918144;29;20212;-70
2023/05/12 09:01:07;;;;;;;0.60;0.50;;;14.40;99.90;;;;;;4917817;29;20267;-70
2023/05/12 09:03:35;;;;;;;0.85;0.75;;;14.40;99.90;;;;;;4917166;29;20213;-70
2023/05/12 09:06:05;;;;;;;0.60;0.60;;;14.50;99.90;;;;;;4917360;29;20256;-70
2023/05/12 09:08:34;;;;;;;1.02;0.82;;;14.60;99.90;;;;;;4917839;29;20341;-70
2023/05/12 09:11:04;;;;;;;0.63;0.60;;;14.60;99.90;;;;;;4917990;29;20244;-70
2023/05/12 09:13:39;;;;;;;0.70;0.70;;;14.80;99.90;;;;;;4910460;29;20252;-70
2023/05/12 09:16:11;;;;;;;0.57;0.45;;;14.90;99.90;;;;;;4922474;29;20288;-71
2023/05/12 09:18:47;;;;;;;0.57;0.52;;;14.90;99.90;;;;;;4915516;29;20216;-70
2023/05/12 09:21:15;;;;;;;0.70;0.60;;;14.90;99.90;;;;;;4915655;29;20219;-68
2023/05/12 09:23:53;;;;;;;0.90;0.70;;;14.90;99.90;;;;;;4917590;29;20672;-68
2023/05/12 09:26:23;;;;;;;0.70;0.63;;;14.80;99.90;;;;;;4917196;29;20611;-67
2023/05/12 09:28:54;;;;;;;0.65;0.55;;;14.80;99.90;;;;;;4917425;29;20291;-67
2023/05/12 09:31:23;;;;;;;0.60;0.40;;;14.80;99.90;;;;;;4917276;29;20232;-68
2023/05/12 09:33:52;;;;;;;0.70;0.60;;;14.90;99.90;;;;;;4900267;29;20233;-68
2023/05/12 09:36:21;;;;;;;0.60;0.50;;;15.10;99.90;;;;;;4916833;29;20252;-68
2023/05/12 09:38:59;;;;;;;0.60;0.50;;;15.20;99.90;;;;;;4917230;29;20295;-68
2023/05/12 09:41:28;;;;;;;0.98;0.75;;;15.30;99.90;;;;;;4917136;29;20259;-68
2023/05/12 09:43:56;;;;;;;0.80;0.55;;;15.30;99.90;;;;;;4917088;29;20736;-68
2023/05/12 09:46:24;;;;;;;0.98;0.75;;;15.50;99.90;;;;;;4916936;29;20277;-68
2023/05/12 09:48:56;;;;;;;0.60;0.50;;;15.60;99.90;;;;;;4931747;29;20608;-68
2023/05/12 09:51:24;;;;;;;0.70;0.70;;;15.70;99.90;;;;;;4917449;29;20692;-68
2023/05/12 09:53:52;;;;;;;0.65;0.55;;;16.00;99.90;;;;;;4915934;29;20311;-68
2023/05/12 09:56:21;;;;;;;0.70;0.65;;;16.20;99.90;;;;;;4916901;29;20799;-68
2023/05/12 09:58:51;;;;;;;0.60;0.60;;;16.20;99.90;;;;;;4917046;29;20212;-68
2023/05/12 10:01:21;;;;;;;0.57;0.47;;;16.30;99.90;;;;;;4915762;29;20227;-68
2023/05/12 10:03:53;;;;;;;0.70;0.70;;;16.30;99.90;;;;;;4916465;29;20212;-69
2023/05/12 10:06:25;;;;;;;0.60;0.40;;;16.30;99.90;;;;;;4916630;29;20225;-68
2023/05/12 10:09:04;;;;;;;0.60;0.55;;;16.40;99.90;;;;;;4916960;29;20223;-68
2023/05/12 10:11:32;;;;;;;0.60;0.52;;;16.30;99.90;;;;;;4916838;29;20211;-69
2023/05/12 10:14:01;;;;;;;0.70;0.60;;;16.20;99.90;;;;;;4917110;29;20279;-68
2023/05/12 10:16:31;;;;;;;0.70;0.60;;;16.00;99.90;;;;;;4916272;29;20263;-69
2023/05/12 10:19:00;;;;;;;0.80;0.73;;;16.00;99.90;;;;;;4926330;29;20205;-68
2023/05/12 10:21:28;;;;;;;0.60;0.50;;;15.90;99.90;;;;;;4924226;29;20293;-68
2023/05/12 10:23:57;;;;;;;0.60;0.50;;;15.70;99.90;;;;;;4916414;29;20247;-67
2023/05/12 10:26:26;;;;;;;1.10;1.00;;;15.70;99.90;;;;;;4916557;29;20276;-68
2023/05/12 10:28:54;;;;;;;0.70;0.50;;;15.60;99.90;;;;;;4916561;29;20299;-68
2023/05/12 10:31:24;;;;;;;0.60;0.50;;;15.40;99.90;;;;;;4916210;29;20217;-68
2023/05/12 10:33:57;;;;;;;0.70;0.57;;;15.50;99.90;;;;;;4916242;29;20260;-68
2023/05/12 10:36:25;;;;;;;0.60;0.50;;;15.50;99.90;;;;;;4915924;29;20648;-68
2023/05/12 10:38:53;;;;;;;1.77;1.15;;;15.40;99.90;;;;;;4916246;29;20247;-68
2023/05/12 10:41:31;;;;;;;0.60;0.50;;;15.40;99.90;;;;;;4915987;29;20676;-68
2023/05/12 10:44:00;;;;;;;0.70;0.60;;;15.30;99.90;;;;;;4916226;29;20223;-68
2023/05/12 10:46:29;;;;;;;0.70;0.50;;;15.20;99.90;;;;;;4915839;29;20305;-68
2023/05/12 10:48:59;;;;;;;0.60;0.50;;;15.10;99.90;;;;;;4930524;29;20622;-68
2023/05/12 10:51:29;;;;;;;0.60;0.50;;;15.10;99.90;;;;;;4932174;29;20217;-68
2023/05/12 10:53:59;;;;;;;0.75;0.70;;;15.10;99.90;;;;;;4915471;29;20228;-68
2023/05/12 10:56:29;;;;;;;0.70;0.65;;;15.20;99.90;;;;;;4915915;29;20719;-69
2023/05/12 10:59:15;;;;;;;0.95;0.95;;;15.30;99.90;;;;;;4916189;29;20204;-68
2023/05/12 11:02:02;;;;;;;0.70;0.70;;;15.30;99.90;;;;;;4915890;29;20331;-69
2023/05/12 11:04:42;;;;;;;0.90;0.80;;;15.40;99.90;;;;;;4915491;29;20233;-69
2023/05/12 11:07:13;;;;;;;0.70;0.60;;;15.40;99.90;;;;;;4915512;29;20219;-68
2023/05/12 11:09:44;;;;;;;0.60;0.50;;;15.40;99.90;;;;;;4915604;29;20224;-68
2023/05/12 11:12:15;;;;;;;1.55;0.80;;;15.30;99.90;;;;;;4915412;29;20243;-69
2023/05/12 11:14:45;;;;;;;0.50;0.40;;;15.30;99.90;;;;;;4915283;29;20727;-69
2023/05/12 11:17:15;;;;;;;0.70;0.68;;;15.20;99.90;;;;;;4916072;29;20240;-69
2023/05/12 11:19:46;;;;;;;1.17;0.85;;;15.10;99.90;;;;;;4926636;29;20585;-68
2023/05/12 11:22:17;;;;;;;0.80;0.55;;;15.00;99.90;;;;;;4925775;29;20299;-68
2023/05/12 11:24:46;;;;;;;0.73;0.60;;;14.90;99.90;;;;;;4915300;29;20659;-68
2023/05/12 11:27:16;;;;;;;1.00;0.80;;;14.80;99.90;;;;;;4914984;29;20240;-69
2023/05/12 11:29:46;;;;;;;0.60;0.60;;;14.80;99.90;;;;;;4915295;29;20680;-68
2023/05/12 11:32:15;;;;;;;0.50;0.40;;;14.70;99.90;;;;;;4914854;29;20208;-68
2023/05/12 11:34:43;;;;;;;0.90;0.85;;;14.60;99.90;;;;;;4915632;29;20335;-68
2023/05/12 11:37:11;;;;;;;0.75;0.75;;;14.60;99.90;;;;;;4915221;29;20240;-71
2023/05/12 11:39:41;;;;;;;0.60;0.60;;;14.50;99.90;;;;;;4915281;29;20299;-71
2023/05/12 11:42:09;;;;;;;0.75;0.60;;;14.60;99.90;;;;;;4915192;29;20209;-71
2023/05/12 11:44:47;;;;;;;1.17;0.60;;;14.60;99.90;;;;;;4912904;29;20208;-71
2023/05/12 11:47:18;;;;;;;0.70;0.70;;;14.70;99.90;;;;;;4915608;29;20216;-71
2023/05/12 11:49:48;;;;;;;0.65;0.60;;;14.70;99.90;;;;;;4933869;29;20212;-71
2023/05/12 11:52:18;;;;;;;0.60;0.50;;;14.90;99.90;;;;;;4925168;29;20212;-69
2023/05/12 11:54:49;;;;;;;0.70;0.70;;;15.20;99.90;;;;;;4915020;29;20232;-68
2023/05/12 11:57:26;;;;;;;0.90;0.85;;;15.70;99.90;;;;;;4915206;29;20247;-68
2023/05/12 11:59:57;;;;;;;0.80;0.80;;;16.10;99.90;;;;;;4914748;29;20222;-68
2023/05/12 12:02:27;;;;;;;0.90;0.82;;;16.40;99.90;;;;;;4914076;29;20218;-69
2023/05/12 12:04:56;;;;;;;0.50;0.40;;;16.50;99.90;;;;;;4914962;29;20260;-69
2023/05/12 12:07:31;;;;;;;0.70;0.60;;;16.40;99.90;;;;;;4915085;29;20234;-71
2023/05/12 12:10:11;;;;;;;0.80;0.75;;;16.50;99.90;;;;;;4914662;29;20215;-71
2023/05/12 12:12:39;;;;;;;0.88;0.88;;;16.50;99.90;;;;;;4914940;29;20495;-72
2023/05/12 12:15:08;;;;;;;0.90;0.73;;;16.50;99.90;;;;;;4914593;29;20323;-71
2023/05/12 12:17:38;;;;;;;1.08;0.80;;;16.40;99.90;;;;;;4917685;29;20243;-71
2023/05/12 12:20:08;;;;;;;0.82;0.65;;;16.40;99.90;;;;;;4933656;29;20208;-71
2023/05/12 12:22:36;;;;;;;0.60;0.50;;;16.50;99.90;;;;;;4922520;29;20267;-71
2023/05/12 12:25:05;;;;;;;0.70;0.60;;;16.60;99.90;;;;;;4914141;29;20802;-71
2023/05/12 12:27:33;;;;;;;0.75;0.70;;;16.80;99.90;;;;;;4914494;29;20259;-71
2023/05/12 12:30:01;;;;;;;0.70;0.52;;;16.80;99.90;;;;;;4914270;29;20212;-71
2023/05/12 12:32:29;;;;;;;1.00;0.80;;;16.70;99.90;;;;;;4914416;29;20624;-71
2023/05/12 12:35:00;;;;;;;0.70;0.60;;;16.70;99.90;;;;;;4914511;29;20595;-69
2023/05/12 12:37:28;;;;;;;0.60;0.50;;;16.50;99.90;;;;;;4914570;29;20267;-69
2023/05/12 12:39:56;;;;;;;0.82;0.80;;;16.40;99.90;;;;;;4913842;29;20263;-69
2023/05/12 12:42:24;;;;;;;0.60;0.40;;;16.50;99.90;;;;;;4914237;29;20303;-70
2023/05/12 12:45:02;;;;;;;0.57;0.40;;;16.40;99.90;;;;;;4955030;23;20727;31
2023/05/12 12:47:30;;;;;;;0.60;0.50;;;16.30;99.90;;;;;;4912085;29;20634;-69
2023/05/12 12:50:00;;;;;;;0.75;0.50;;;16.20;99.90;;;;;;4913536;29;20215;-70
2023/05/12 12:52:28;;;;;;;0.60;0.50;;;16.00;99.90;;;;;;4914002;29;20212;-69
2023/05/12 12:54:56;;;;;;;0.90;0.50;;;16.00;99.90;;;;;;4914217;29;20243;-70
2023/05/12 12:57:24;;;;;;;0.50;0.40;;;16.00;99.90;;;;;;4914173;29;20296;-69